sensor_id;sensor_type;location;lat;lon;timestamp;temperature;humidity
62363;DHT22;48396;48.426;1.500;2022-12-29T00:01:53;13.60;99.90
62363;DHT22;48396;48.426;1.500;2022-12-29T00:04:20;13.50;99.90
62363;DHT22;48396;48.426;1.500;2022-12-29T00:06:46;13.50;99.90
62363;DHT22;48396;48.426;1.500;2022-12-29T00:09:15;13.40;99.90
62363;DHT22;48396;48.426;1.500;2022-12-29T00:11:41;13.50;99.90
62363;DHT22;48396;48.426;1.500;2022-12-29T00:14:11;13.60;99.90
62363;DHT22;48396;48.426;1.500;2022-12-29T00:16:56;13.60;99.90
62363;DHT22;48396;48.426;1.500;2022-12-29T00:19:22;13.50;99.90
62363;DHT22;48396;48.426;1.500;2022-12-29T00:22:12;13.60;99.90
62363;DHT22;48396;48.426;1.500;2022-12-29T00:24:57;13.50;99.90
62363;DHT22;48396;48.426;1.500;2022-12-29T00:27:26;13.60;99.90
62363;DHT22;48396;48.426;1.500;2022-12-29T00:30:13;13.50;99.90
62363;DHT22;48396;48.426;1.500;2022-12-29T00:32:57;13.60;99.90
62363;DHT22;48396;48.426;1.500;2022-12-29T00:35:51;13.60;99.90
62363;DHT22;48396;48.426;1.500;2022-12-29T00:38:18;13.60;99.90
62363;DHT22;48396;48.426;1.500;2022-12-29T00:41:02;13.60;99.90
62363;DHT22;48396;48.426;1.500;2022-12-29T00:43:46;13.50;99.90
62363;DHT22;48396;48.426;1.500;2022-12-29T00:46:33;13.60;99.90
62363;DHT22;48396;48.426;1.500;2022-12-29T00:48:59;13.70;99.90
62363;DHT22;48396;48.426;1.500;2022-12-29T00:51:44;13.60;99.90
62363;DHT22;48396;48.426;1.500;2022-12-29T00:54:10;13.50;99.90
62363;DHT22;48396;48.426;1.500;2022-12-29T00:56:36;13.60;99.90
62363;DHT22;48396;48.426;1.500;2022-12-29T00:59:03;13.60;99.90
62363;DHT22;48396;48.426;1.500;2022-12-29T01:01:29;13.60;99.90
62363;DHT22;48396;48.426;1.500;2022-12-29T01:03:55;13.60;99.90
62363;DHT22;48396;48.426;1.500;2022-12-29T01:06:21;13.70;99.90
62363;DHT22;48396;48.426;1.500;2022-12-29T01:08:47;13.70;99.90
62363;DHT22;48396;48.426;1.500;2022-12-29T01:11:33;13.70;99.90
62363;DHT22;48396;48.426;1.500;2022-12-29T01:13:59;13.70;99.90
62363;DHT22;48396;48.426;1.500;2022-12-29T01:16:25;13.70;99.90
62363;DHT22;48396;48.426;1.500;2022-12-29T01:18:50;13.70;99.90
62363;DHT22;48396;48.426;1.500;2022-12-29T01:21:16;13.60;99.90
62363;DHT22;48396;48.426;1.500;2022-12-29T01:23:42;13.60;99.90
62363;DHT22;48396;48.426;1.500;2022-12-29T01:26:09;13.60;99.90
62363;DHT22;48396;48.426;1.500;2022-12-29T01:28:35;13.50;99.90
62363;DHT22;48396;48.426;1.500;2022-12-29T01:31:01;13.60;99.90
62363;DHT22;48396;48.426;1.500;2022-12-29T01:33:27;13.60;99.90
62363;DHT22;48396;48.426;1.500;2022-12-29T01:35:52;13.60;99.90
62363;DHT22;48396;48.426;1.500;2022-12-29T01:38:18;13.70;99.90
62363;DHT22;48396;48.426;1.500;2022-12-29T01:40:45;13.70;99.90
62363;DHT22;48396;48.426;1.500;2022-12-29T01:43:13;13.80;99.90
62363;DHT22;48396;48.426;1.500;2022-12-29T01:45:45;13.80;99.90
62363;DHT22;48396;48.426;1.500;2022-12-29T01:48:14;13.70;99.90
62363;DHT22;48396;48.426;1.500;2022-12-29T01:50:46;13.60;99.90
62363;DHT22;48396;48.426;1.500;2022-12-29T01:53:25;13.60;99.90
62363;DHT22;48396;48.426;1.500;2022-12-29T01:55:55;13.60;99.90
62363;DHT22;48396;48.426;1.500;2022-12-29T01:58:26;13.70;99.90
62363;DHT22;48396;48.426;1.500;2022-12-29T02:00:52;13.70;99.90
62363;DHT22;48396;48.426;1.500;2022-12-29T02:03:19;13.70;99.90
62363;DHT22;48396;48.426;1.500;2022-12-29T02:08:27;13.70;99.90
62363;DHT22;48396;48.426;1.500;2022-12-29T02:10:55;13.60;99.90
62363;DHT22;48396;48.426;1.500;2022-12-29T02:13:23;13.70;99.90
62363;DHT22;48396;48.426;1.500;2022-12-29T02:23:55;13.20;99.90
62363;DHT22;48396;48.426;1.500;2022-12-29T02:26:54;13.10;99.90
62363;DHT22;48396;48.426;1.500;2022-12-29T02:32:22;12.60;99.90
62363;DHT22;48396;48.426;1.500;2022-12-29T02:35:15;12.70;99.90
62363;DHT22;48396;48.426;1.500;2022-12-29T02:37:56;12.70;99.90
62363;DHT22;48396;48.426;1.500;2022-12-29T02:40:39;12.60;99.90
62363;DHT22;48396;48.426;1.500;2022-12-29T02:46:10;12.80;99.90
62363;DHT22;48396;48.426;1.500;2022-12-29T02:48:42;12.80;99.90
62363;DHT22;48396;48.426;1.500;2022-12-29T02:51:15;12.90;99.90
62363;DHT22;48396;48.426;1.500;2022-12-29T02:53:44;13.00;99.90
62363;DHT22;48396;48.426;1.500;2022-12-29T02:56:30;13.00;99.90
62363;DHT22;48396;48.426;1.500;2022-12-29T02:58:56;13.10;99.90
62363;DHT22;48396;48.426;1.500;2022-12-29T03:02:02;13.10;99.90
62363;DHT22;48396;48.426;1.500;2022-12-29T03:15:34;13.00;99.90
62363;DHT22;48396;48.426;1.500;2022-12-29T03:18:26;13.10;99.90
62363;DHT22;48396;48.426;1.500;2022-12-29T03:21:02;13.10;99.90
62363;DHT22;48396;48.426;1.500;2022-12-29T03:23:31;13.10;99.90
62363;DHT22;48396;48.426;1.500;2022-12-29T03:26:02;13.30;99.90
62363;DHT22;48396;48.426;1.500;2022-12-29T03:28:35;13.30;99.90
62363;DHT22;48396;48.426;1.500;2022-12-29T03:31:03;13.30;99.90
62363;DHT22;48396;48.426;1.500;2022-12-29T03:33:30;13.10;99.90
62363;DHT22;48396;48.426;1.500;2022-12-29T03:36:03;13.20;99.90
62363;DHT22;48396;48.426;1.500;2022-12-29T03:38:47;13.30;99.90
62363;DHT22;48396;48.426;1.500;2022-12-29T03:41:18;13.30;99.90
62363;DHT22;48396;48.426;1.500;2022-12-29T03:43:46;13.30;99.90
62363;DHT22;48396;48.426;1.500;2022-12-29T03:46:12;13.30;99.90
62363;DHT22;48396;48.426;1.500;2022-12-29T03:48:38;13.30;99.90
62363;DHT22;48396;48.426;1.500;2022-12-29T03:51:03;13.30;99.90
62363;DHT22;48396;48.426;1.500;2022-12-29T03:53:29;13.10;99.90
62363;DHT22;48396;48.426;1.500;2022-12-29T03:55:55;13.10;99.90
62363;DHT22;48396;48.426;1.500;2022-12-29T03:58:21;13.20;99.90
62363;DHT22;48396;48.426;1.500;2022-12-29T04:00:47;13.30;99.90
62363;DHT22;48396;48.426;1.500;2022-12-29T04:03:12;13.30;99.90
62363;DHT22;48396;48.426;1.500;2022-12-29T04:05:38;13.30;99.90
62363;DHT22;48396;48.426;1.500;2022-12-29T04:08:04;13.20;99.90
62363;DHT22;48396;48.426;1.500;2022-12-29T04:10:30;13.10;99.90
62363;DHT22;48396;48.426;1.500;2022-12-29T04:12:56;13.10;99.90
62363;DHT22;48396;48.426;1.500;2022-12-29T04:15:21;13.00;99.90
62363;DHT22;48396;48.426;1.500;2022-12-29T04:17:49;13.10;99.90
62363;DHT22;48396;48.426;1.500;2022-12-29T04:20:15;13.20;99.90
62363;DHT22;48396;48.426;1.500;2022-12-29T04:23:02;13.10;99.90
62363;DHT22;48396;48.426;1.500;2022-12-29T04:25:28;12.90;99.90
62363;DHT22;48396;48.426;1.500;2022-12-29T04:27:55;12.80;99.90
62363;DHT22;48396;48.426;1.500;2022-12-29T04:30:21;12.80;99.90
62363;DHT22;48396;48.426;1.500;2022-12-29T04:32:47;12.70;99.90
62363;DHT22;48396;48.426;1.500;2022-12-29T04:35:13;12.80;99.90
62363;DHT22;48396;48.426;1.500;2022-12-29T04:37:38;12.80;99.90
62363;DHT22;48396;48.426;1.500;2022-12-29T04:40:05;12.70;99.90
62363;DHT22;48396;48.426;1.500;2022-12-29T04:42:31;12.80;99.90
62363;DHT22;48396;48.426;1.500;2022-12-29T04:44:56;12.80;99.90
62363;DHT22;48396;48.426;1.500;2022-12-29T04:47:22;12.70;99.90
62363;DHT22;48396;48.426;1.500;2022-12-29T04:49:48;12.70;99.90
62363;DHT22;48396;48.426;1.500;2022-12-29T04:52:14;12.80;99.90
62363;DHT22;48396;48.426;1.500;2022-12-29T04:54:40;12.80;99.90
62363;DHT22;48396;48.426;1.500;2022-12-29T04:57:06;12.80;99.90
62363;DHT22;48396;48.426;1.500;2022-12-29T04:59:32;12.70;99.90
62363;DHT22;48396;48.426;1.500;2022-12-29T05:01:57;12.70;99.90
62363;DHT22;48396;48.426;1.500;2022-12-29T05:04:23;12.80;99.90
62363;DHT22;48396;48.426;1.500;2022-12-29T05:06:49;12.70;99.90
62363;DHT22;48396;48.426;1.500;2022-12-29T05:09:15;12.60;99.90
62363;DHT22;48396;48.426;1.500;2022-12-29T05:11:41;12.80;99.90
62363;DHT22;48396;48.426;1.500;2022-12-29T05:14:06;12.80;99.90
62363;DHT22;48396;48.426;1.500;2022-12-29T05:16:32;12.80;99.90
62363;DHT22;48396;48.426;1.500;2022-12-29T05:18:58;13.00;99.90
62363;DHT22;48396;48.426;1.500;2022-12-29T05:21:24;12.90;99.90
62363;DHT22;48396;48.426;1.500;2022-12-29T05:23:50;12.90;99.90
62363;DHT22;48396;48.426;1.500;2022-12-29T05:26:16;12.70;99.90
62363;DHT22;48396;48.426;1.500;2022-12-29T05:28:42;12.70;99.90
62363;DHT22;48396;48.426;1.500;2022-12-29T05:31:08;12.60;99.90
62363;DHT22;48396;48.426;1.500;2022-12-29T05:33:33;12.60;99.90
62363;DHT22;48396;48.426;1.500;2022-12-29T05:36:06;12.50;99.90
62363;DHT22;48396;48.426;1.500;2022-12-29T05:38:33;12.70;99.90
62363;DHT22;48396;48.426;1.500;2022-12-29T05:40:59;12.70;99.90
62363;DHT22;48396;48.426;1.500;2022-12-29T05:43:24;12.70;99.90
62363;DHT22;48396;48.426;1.500;2022-12-29T05:45:50;12.70;99.90
62363;DHT22;48396;48.426;1.500;2022-12-29T05:48:17;12.70;99.90
62363;DHT22;48396;48.426;1.500;2022-12-29T05:50:46;12.70;99.90
62363;DHT22;48396;48.426;1.500;2022-12-29T05:53:13;12.80;99.90
62363;DHT22;48396;48.426;1.500;2022-12-29T05:55:39;12.70;99.90
62363;DHT22;48396;48.426;1.500;2022-12-29T05:58:08;12.70;99.90
62363;DHT22;48396;48.426;1.500;2022-12-29T06:00:34;12.70;99.90
62363;DHT22;48396;48.426;1.500;2022-12-29T06:02:59;12.60;99.90
62363;DHT22;48396;48.426;1.500;2022-12-29T06:05:25;12.60;99.90
62363;DHT22;48396;48.426;1.500;2022-12-29T06:07:51;12.60;99.90
62363;DHT22;48396;48.426;1.500;2022-12-29T06:10:17;12.50;99.90
62363;DHT22;48396;48.426;1.500;2022-12-29T06:12:43;12.50;99.90
62363;DHT22;48396;48.426;1.500;2022-12-29T06:15:09;12.60;99.90
62363;DHT22;48396;48.426;1.500;2022-12-29T06:17:35;12.60;99.90
62363;DHT22;48396;48.426;1.500;2022-12-29T06:20:02;12.60;99.90
62363;DHT22;48396;48.426;1.500;2022-12-29T06:22:28;12.60;99.90
62363;DHT22;48396;48.426;1.500;2022-12-29T06:24:53;12.50;99.90
62363;DHT22;48396;48.426;1.500;2022-12-29T06:27:19;12.60;99.90
62363;DHT22;48396;48.426;1.500;2022-12-29T06:29:45;12.60;99.90
62363;DHT22;48396;48.426;1.500;2022-12-29T06:32:11;12.50;99.90
62363;DHT22;48396;48.426;1.500;2022-12-29T06:34:37;12.30;99.90
62363;DHT22;48396;48.426;1.500;2022-12-29T06:37:03;12.20;99.90
62363;DHT22;48396;48.426;1.500;2022-12-29T06:39:28;12.20;99.90
62363;DHT22;48396;48.426;1.500;2022-12-29T06:41:54;12.30;99.90
62363;DHT22;48396;48.426;1.500;2022-12-29T06:44:21;12.20;99.90
62363;DHT22;48396;48.426;1.500;2022-12-29T06:46:47;12.30;99.90
62363;DHT22;48396;48.426;1.500;2022-12-29T06:49:13;12.40;99.90
62363;DHT22;48396;48.426;1.500;2022-12-29T06:51:39;12.40;99.90
62363;DHT22;48396;48.426;1.500;2022-12-29T06:54:05;12.30;99.90
62363;DHT22;48396;48.426;1.500;2022-12-29T06:56:30;12.30;99.90
62363;DHT22;48396;48.426;1.500;2022-12-29T06:58:56;12.30;99.90
62363;DHT22;48396;48.426;1.500;2022-12-29T07:01:22;12.40;99.90
62363;DHT22;48396;48.426;1.500;2022-12-29T07:03:48;12.30;99.90
62363;DHT22;48396;48.426;1.500;2022-12-29T07:06:14;12.40;99.90
62363;DHT22;48396;48.426;1.500;2022-12-29T07:08:40;12.30;99.90
62363;DHT22;48396;48.426;1.500;2022-12-29T07:11:06;12.30;99.90
62363;DHT22;48396;48.426;1.500;2022-12-29T07:13:31;12.30;99.90
62363;DHT22;48396;48.426;1.500;2022-12-29T07:15:57;12.50;99.70
62363;DHT22;48396;48.426;1.500;2022-12-29T07:18:23;12.30;99.60
62363;DHT22;48396;48.426;1.500;2022-12-29T07:20:49;12.30;99.60
62363;DHT22;48396;48.426;1.500;2022-12-29T07:23:15;12.30;99.60
62363;DHT22;48396;48.426;1.500;2022-12-29T07:25:40;12.30;99.60
62363;DHT22;48396;48.426;1.500;2022-12-29T07:28:07;12.30;99.60
62363;DHT22;48396;48.426;1.500;2022-12-29T07:30:33;12.40;99.50
62363;DHT22;48396;48.426;1.500;2022-12-29T07:32:59;12.50;99.40
62363;DHT22;48396;48.426;1.500;2022-12-29T07:35:24;12.50;99.40
62363;DHT22;48396;48.426;1.500;2022-12-29T07:37:50;12.50;99.30
62363;DHT22;48396;48.426;1.500;2022-12-29T07:40:16;12.50;99.20
62363;DHT22;48396;48.426;1.500;2022-12-29T07:42:42;12.40;99.40
62363;DHT22;48396;48.426;1.500;2022-12-29T07:45:08;12.30;99.60
62363;DHT22;48396;48.426;1.500;2022-12-29T07:47:34;12.40;99.60
62363;DHT22;48396;48.426;1.500;2022-12-29T07:50:00;12.60;99.80
62363;DHT22;48396;48.426;1.500;2022-12-29T07:52:26;12.70;99.50
62363;DHT22;48396;48.426;1.500;2022-12-29T07:54:52;12.80;99.40
62363;DHT22;48396;48.426;1.500;2022-12-29T07:57:17;12.60;99.50
62363;DHT22;48396;48.426;1.500;2022-12-29T07:59:43;12.60;99.70
62363;DHT22;48396;48.426;1.500;2022-12-29T08:02:12;12.60;99.70
62363;DHT22;48396;48.426;1.500;2022-12-29T08:04:37;12.60;99.70
62363;DHT22;48396;48.426;1.500;2022-12-29T08:07:03;12.70;99.60
62363;DHT22;48396;48.426;1.500;2022-12-29T08:09:29;12.70;99.40
62363;DHT22;48396;48.426;1.500;2022-12-29T08:11:55;12.70;99.30
62363;DHT22;48396;48.426;1.500;2022-12-29T08:14:21;12.70;99.50
62363;DHT22;48396;48.426;1.500;2022-12-29T08:16:46;12.60;99.50
62363;DHT22;48396;48.426;1.500;2022-12-29T08:19:13;12.70;99.50
62363;DHT22;48396;48.426;1.500;2022-12-29T08:21:39;12.60;99.30
62363;DHT22;48396;48.426;1.500;2022-12-29T08:24:06;12.50;99.40
62363;DHT22;48396;48.426;1.500;2022-12-29T08:26:31;12.50;99.30
62363;DHT22;48396;48.426;1.500;2022-12-29T08:28:57;12.60;99.50
62363;DHT22;48396;48.426;1.500;2022-12-29T08:31:23;12.60;99.40
62363;DHT22;48396;48.426;1.500;2022-12-29T08:33:49;12.60;99.50
62363;DHT22;48396;48.426;1.500;2022-12-29T08:36:15;12.70;99.10
62363;DHT22;48396;48.426;1.500;2022-12-29T08:38:41;12.70;99.10
62363;DHT22;48396;48.426;1.500;2022-12-29T08:41:07;12.60;99.00
62363;DHT22;48396;48.426;1.500;2022-12-29T08:43:33;12.60;99.00
62363;DHT22;48396;48.426;1.500;2022-12-29T08:45:59;12.60;98.90
62363;DHT22;48396;48.426;1.500;2022-12-29T08:48:25;12.60;99.00
62363;DHT22;48396;48.426;1.500;2022-12-29T08:50:51;12.60;99.10
62363;DHT22;48396;48.426;1.500;2022-12-29T08:53:18;12.60;99.00
62363;DHT22;48396;48.426;1.500;2022-12-29T08:55:54;12.60;99.00
62363;DHT22;48396;48.426;1.500;2022-12-29T08:58:19;12.60;99.00
62363;DHT22;48396;48.426;1.500;2022-12-29T09:00:45;12.60;98.90
62363;DHT22;48396;48.426;1.500;2022-12-29T09:03:11;12.60;98.90
62363;DHT22;48396;48.426;1.500;2022-12-29T09:05:37;12.60;98.90
62363;DHT22;48396;48.426;1.500;2022-12-29T09:08:03;12.50;99.00
62363;DHT22;48396;48.426;1.500;2022-12-29T09:10:29;12.60;99.00
62363;DHT22;48396;48.426;1.500;2022-12-29T09:12:55;12.60;98.90
62363;DHT22;48396;48.426;1.500;2022-12-29T09:15:21;12.50;98.90
62363;DHT22;48396;48.426;1.500;2022-12-29T09:17:47;12.50;99.10
62363;DHT22;48396;48.426;1.500;2022-12-29T09:20:18;12.50;99.10
62363;DHT22;48396;48.426;1.500;2022-12-29T09:22:44;12.60;99.20
62363;DHT22;48396;48.426;1.500;2022-12-29T09:25:13;12.80;99.00
62363;DHT22;48396;48.426;1.500;2022-12-29T09:27:39;12.90;98.80
62363;DHT22;48396;48.426;1.500;2022-12-29T09:30:07;12.80;99.00
62363;DHT22;48396;48.426;1.500;2022-12-29T09:32:33;12.70;99.10
62363;DHT22;48396;48.426;1.500;2022-12-29T09:34:59;12.60;99.30
62363;DHT22;48396;48.426;1.500;2022-12-29T09:37:25;12.50;99.60
62363;DHT22;48396;48.426;1.500;2022-12-29T09:39:51;12.50;99.50
62363;DHT22;48396;48.426;1.500;2022-12-29T09:42:19;12.50;99.60
62363;DHT22;48396;48.426;1.500;2022-12-29T09:47:20;12.80;99.30
62363;DHT22;48396;48.426;1.500;2022-12-29T09:52:36;12.90;98.90
62363;DHT22;48396;48.426;1.500;2022-12-29T09:55:19;12.80;99.00
62363;DHT22;48396;48.426;1.500;2022-12-29T09:57:49;12.80;99.00
62363;DHT22;48396;48.426;1.500;2022-12-29T10:00:20;12.90;98.80
62363;DHT22;48396;48.426;1.500;2022-12-29T10:02:53;12.90;98.80
62363;DHT22;48396;48.426;1.500;2022-12-29T10:16:56;12.90;98.60
62363;DHT22;48396;48.426;1.500;2022-12-29T10:19:49;12.80;98.80
62363;DHT22;48396;48.426;1.500;2022-12-29T10:25:23;12.80;98.90
62363;DHT22;48396;48.426;1.500;2022-12-29T10:27:50;12.90;98.90
62363;DHT22;48396;48.426;1.500;2022-12-29T10:30:18;13.00;98.90
62363;DHT22;48396;48.426;1.500;2022-12-29T10:33:04;13.00;98.80
62363;DHT22;48396;48.426;1.500;2022-12-29T10:35:36;13.00;98.80
62363;DHT22;48396;48.426;1.500;2022-12-29T10:38:35;13.00;98.70
62363;DHT22;48396;48.426;1.500;2022-12-29T10:43:48;13.00;98.70
62363;DHT22;48396;48.426;1.500;2022-12-29T10:46:24;13.00;98.70
62363;DHT22;48396;48.426;1.500;2022-12-29T10:48:50;13.00;98.60
62363;DHT22;48396;48.426;1.500;2022-12-29T10:51:38;13.10;98.60
62363;DHT22;48396;48.426;1.500;2022-12-29T10:56:49;13.10;98.60
62363;DHT22;48396;48.426;1.500;2022-12-29T10:59:27;13.10;98.70
62363;DHT22;48396;48.426;1.500;2022-12-29T11:07:17;13.30;98.40
62363;DHT22;48396;48.426;1.500;2022-12-29T11:09:44;13.30;98.20
62363;DHT22;48396;48.426;1.500;2022-12-29T11:14:47;13.20;98.10
62363;DHT22;48396;48.426;1.500;2022-12-29T11:17:25;13.30;98.40
62363;DHT22;48396;48.426;1.500;2022-12-29T11:19:51;13.40;97.90
62363;DHT22;48396;48.426;1.500;2022-12-29T11:22:26;13.40;97.80
62363;DHT22;48396;48.426;1.500;2022-12-29T11:24:54;13.40;97.50
62363;DHT22;48396;48.426;1.500;2022-12-29T11:27:23;13.20;96.90
62363;DHT22;48396;48.426;1.500;2022-12-29T11:29:53;13.20;97.30
62363;DHT22;48396;48.426;1.500;2022-12-29T11:32:23;13.20;96.40
62363;DHT22;48396;48.426;1.500;2022-12-29T11:34:49;13.20;96.10
62363;DHT22;48396;48.426;1.500;2022-12-29T11:37:37;13.00;96.10
62363;DHT22;48396;48.426;1.500;2022-12-29T11:40:20;13.10;96.20
62363;DHT22;48396;48.426;1.500;2022-12-29T11:42:55;13.20;96.30
62363;DHT22;48396;48.426;1.500;2022-12-29T11:45:34;13.20;96.00
62363;DHT22;48396;48.426;1.500;2022-12-29T11:48:12;13.10;95.80
62363;DHT22;48396;48.426;1.500;2022-12-29T11:50:42;12.90;95.60
62363;DHT22;48396;48.426;1.500;2022-12-29T11:53:23;12.90;96.10
62363;DHT22;48396;48.426;1.500;2022-12-29T11:55:53;13.00;96.20
62363;DHT22;48396;48.426;1.500;2022-12-29T11:58:20;13.00;95.70
62363;DHT22;48396;48.426;1.500;2022-12-29T12:00:46;13.00;95.80
62363;DHT22;48396;48.426;1.500;2022-12-29T12:03:23;13.10;95.50
62363;DHT22;48396;48.426;1.500;2022-12-29T12:05:57;13.00;95.40
62363;DHT22;48396;48.426;1.500;2022-12-29T12:08:41;12.90;95.40
62363;DHT22;48396;48.426;1.500;2022-12-29T12:11:21;13.10;95.40
62363;DHT22;48396;48.426;1.500;2022-12-29T12:14:02;13.00;95.30
62363;DHT22;48396;48.426;1.500;2022-12-29T12:16:50;13.10;95.50
62363;DHT22;48396;48.426;1.500;2022-12-29T12:22:16;13.10;94.90
62363;DHT22;48396;48.426;1.500;2022-12-29T12:27:39;13.20;95.30
62363;DHT22;48396;48.426;1.500;2022-12-29T12:30:16;13.20;95.40
62363;DHT22;48396;48.426;1.500;2022-12-29T12:35:57;13.40;95.50
62363;DHT22;48396;48.426;1.500;2022-12-29T12:41:20;13.30;96.00
62363;DHT22;48396;48.426;1.500;2022-12-29T12:44:11;13.50;96.10
62363;DHT22;48396;48.426;1.500;2022-12-29T12:55:26;13.60;96.00
62363;DHT22;48396;48.426;1.500;2022-12-29T13:00:28;13.90;96.00
62363;DHT22;48396;48.426;1.500;2022-12-29T13:03:38;13.90;95.50
62363;DHT22;48396;48.426;1.500;2022-12-29T13:09:00;14.00;95.20
62363;DHT22;48396;48.426;1.500;2022-12-29T13:19:35;13.80;94.90
62363;DHT22;48396;48.426;1.500;2022-12-29T13:22:13;13.70;94.40
62363;DHT22;48396;48.426;1.500;2022-12-29T13:30:20;13.60;94.70
62363;DHT22;48396;48.426;1.500;2022-12-29T13:35:36;13.80;94.20
62363;DHT22;48396;48.426;1.500;2022-12-29T13:40:45;14.10;93.90
62363;DHT22;48396;48.426;1.500;2022-12-29T13:43:16;14.20;93.30
62363;DHT22;48396;48.426;1.500;2022-12-29T13:45:43;14.00;93.20
62363;DHT22;48396;48.426;1.500;2022-12-29T13:49:10;13.90;92.80
62363;DHT22;48396;48.426;1.500;2022-12-29T13:51:15;13.80;92.30
62363;DHT22;48396;48.426;1.500;2022-12-29T13:56:49;13.90;92.30
62363;DHT22;48396;48.426;1.500;2022-12-29T13:59:28;14.00;91.90
62363;DHT22;48396;48.426;1.500;2022-12-29T14:02:26;13.90;91.60
62363;DHT22;48396;48.426;1.500;2022-12-29T14:07:42;13.80;91.30
62363;DHT22;48396;48.426;1.500;2022-12-29T14:13:19;13.80;91.90
62363;DHT22;48396;48.426;1.500;2022-12-29T14:15:55;13.80;91.40
62363;DHT22;48396;48.426;1.500;2022-12-29T14:18:27;13.80;91.30
62363;DHT22;48396;48.426;1.500;2022-12-29T14:21:18;13.90;91.00
62363;DHT22;48396;48.426;1.500;2022-12-29T14:23:50;13.90;90.80
62363;DHT22;48396;48.426;1.500;2022-12-29T14:29:41;14.10;90.90
62363;DHT22;48396;48.426;1.500;2022-12-29T14:32:02;14.10;90.50
62363;DHT22;48396;48.426;1.500;2022-12-29T14:34:30;14.00;91.10
62363;DHT22;48396;48.426;1.500;2022-12-29T14:37:03;13.90;90.70
62363;DHT22;48396;48.426;1.500;2022-12-29T14:42:06;14.10;90.70
62363;DHT22;48396;48.426;1.500;2022-12-29T14:47:45;14.10;90.60
62363;DHT22;48396;48.426;1.500;2022-12-29T14:55:41;14.20;90.30
62363;DHT22;48396;48.426;1.500;2022-12-29T14:58:48;14.40;90.30
62363;DHT22;48396;48.426;1.500;2022-12-29T15:01:37;14.60;90.60
62363;DHT22;48396;48.426;1.500;2022-12-29T15:04:25;14.90;90.50
62363;DHT22;48396;48.426;1.500;2022-12-29T15:06:54;14.90;90.10
62363;DHT22;48396;48.426;1.500;2022-12-29T15:14:51;14.70;90.00
62363;DHT22;48396;48.426;1.500;2022-12-29T15:17:30;14.70;90.00
62363;DHT22;48396;48.426;1.500;2022-12-29T15:19:58;14.60;89.80
62363;DHT22;48396;48.426;1.500;2022-12-29T15:22:25;14.40;90.10
62363;DHT22;48396;48.426;1.500;2022-12-29T15:24:53;14.30;90.30
62363;DHT22;48396;48.426;1.500;2022-12-29T15:27:22;14.10;90.50
62363;DHT22;48396;48.426;1.500;2022-12-29T15:29:56;14.00;90.90
62363;DHT22;48396;48.426;1.500;2022-12-29T15:32:26;14.10;90.80
62363;DHT22;48396;48.426;1.500;2022-12-29T15:34:57;14.00;90.70
62363;DHT22;48396;48.426;1.500;2022-12-29T15:37:33;13.90;91.00
62363;DHT22;48396;48.426;1.500;2022-12-29T15:40:01;13.80;91.20
62363;DHT22;48396;48.426;1.500;2022-12-29T15:43:31;13.90;91.10
62363;DHT22;48396;48.426;1.500;2022-12-29T15:45:37;14.00;91.00
62363;DHT22;48396;48.426;1.500;2022-12-29T15:48:04;14.00;90.90
62363;DHT22;48396;48.426;1.500;2022-12-29T15:50:35;13.90;90.80
62363;DHT22;48396;48.426;1.500;2022-12-29T15:53:02;14.00;90.80
62363;DHT22;48396;48.426;1.500;2022-12-29T15:55:39;13.90;90.70
62363;DHT22;48396;48.426;1.500;2022-12-29T15:58:21;13.80;90.80
62363;DHT22;48396;48.426;1.500;2022-12-29T16:00:53;13.80;90.90
62363;DHT22;48396;48.426;1.500;2022-12-29T16:03:21;13.80;90.90
62363;DHT22;48396;48.426;1.500;2022-12-29T16:05:57;13.70;91.00
62363;DHT22;48396;48.426;1.500;2022-12-29T16:08:36;13.60;91.10
62363;DHT22;48396;48.426;1.500;2022-12-29T16:11:07;13.70;91.40
62363;DHT22;48396;48.426;1.500;2022-12-29T16:13:43;13.70;91.10
62363;DHT22;48396;48.426;1.500;2022-12-29T16:16:16;13.60;90.80
62363;DHT22;48396;48.426;1.500;2022-12-29T16:18:44;13.60;91.00
62363;DHT22;48396;48.426;1.500;2022-12-29T16:21:32;13.50;91.20
62363;DHT22;48396;48.426;1.500;2022-12-29T16:24:05;13.50;91.30
62363;DHT22;48396;48.426;1.500;2022-12-29T16:26:32;13.50;91.30
62363;DHT22;48396;48.426;1.500;2022-12-29T16:29:00;13.50;91.40
62363;DHT22;48396;48.426;1.500;2022-12-29T16:34:42;13.50;91.30
62363;DHT22;48396;48.426;1.500;2022-12-29T16:39:53;13.50;91.40
62363;DHT22;48396;48.426;1.500;2022-12-29T16:50:37;13.20;91.90
62363;DHT22;48396;48.426;1.500;2022-12-29T16:53:05;13.20;91.90
62363;DHT22;48396;48.426;1.500;2022-12-29T16:55:32;13.00;92.00
62363;DHT22;48396;48.426;1.500;2022-12-29T16:57:58;12.90;92.10
62363;DHT22;48396;48.426;1.500;2022-12-29T17:00:31;12.90;92.40
62363;DHT22;48396;48.426;1.500;2022-12-29T17:03:00;12.80;92.30
62363;DHT22;48396;48.426;1.500;2022-12-29T17:05:27;12.90;92.50
62363;DHT22;48396;48.426;1.500;2022-12-29T17:07:52;13.00;92.30
62363;DHT22;48396;48.426;1.500;2022-12-29T17:10:18;12.90;92.40
62363;DHT22;48396;48.426;1.500;2022-12-29T17:12:47;12.80;92.50
62363;DHT22;48396;48.426;1.500;2022-12-29T17:15:24;12.80;92.60
62363;DHT22;48396;48.426;1.500;2022-12-29T17:17:53;12.70;92.70
62363;DHT22;48396;48.426;1.500;2022-12-29T17:22:46;12.60;92.80
62363;DHT22;48396;48.426;1.500;2022-12-29T17:25:17;12.70;92.90
62363;DHT22;48396;48.426;1.500;2022-12-29T17:30:15;12.70;92.90
62363;DHT22;48396;48.426;1.500;2022-12-29T17:32:43;12.60;93.00
62363;DHT22;48396;48.426;1.500;2022-12-29T17:35:13;12.60;93.00
62363;DHT22;48396;48.426;1.500;2022-12-29T17:37:40;12.60;93.00
62363;DHT22;48396;48.426;1.500;2022-12-29T17:40:09;12.50;93.20
62363;DHT22;48396;48.426;1.500;2022-12-29T17:42:39;12.50;93.20
62363;DHT22;48396;48.426;1.500;2022-12-29T17:45:11;12.40;93.20
62363;DHT22;48396;48.426;1.500;2022-12-29T17:47:37;12.40;93.30
62363;DHT22;48396;48.426;1.500;2022-12-29T17:50:03;12.40;93.40
62363;DHT22;48396;48.426;1.500;2022-12-29T17:52:29;12.30;93.50
62363;DHT22;48396;48.426;1.500;2022-12-29T17:54:55;12.30;93.50
62363;DHT22;48396;48.426;1.500;2022-12-29T17:57:21;12.30;93.40
62363;DHT22;48396;48.426;1.500;2022-12-29T17:59:46;12.20;93.60
62363;DHT22;48396;48.426;1.500;2022-12-29T18:02:31;12.30;93.60
62363;DHT22;48396;48.426;1.500;2022-12-29T18:04:57;12.40;93.50
62363;DHT22;48396;48.426;1.500;2022-12-29T18:07:28;12.40;93.50
62363;DHT22;48396;48.426;1.500;2022-12-29T18:09:54;12.30;93.50
62363;DHT22;48396;48.426;1.500;2022-12-29T18:12:29;12.20;93.70
62363;DHT22;48396;48.426;1.500;2022-12-29T18:14:56;12.20;93.90
62363;DHT22;48396;48.426;1.500;2022-12-29T18:17:21;12.30;93.80
62363;DHT22;48396;48.426;1.500;2022-12-29T18:19:47;12.20;93.90
62363;DHT22;48396;48.426;1.500;2022-12-29T18:22:15;12.30;93.80
62363;DHT22;48396;48.426;1.500;2022-12-29T18:24:40;12.30;93.90